Latest Weather Observations for Charleville

IDQ60801

Issued at 5:43 pm EST Thursday 30 May 2024 (issued every 10 minutes, with the page automatically refreshed every 10 minutes)

About weather observations | Map of weather stations | Latest weather observations for QLD | Other Formats
Station Details ID: 044021 Name: CHARLEVILLE AERO Lat: -26.41 Lon: 146.26 Height: 301.6 m
Data from the previous 72 hours. | See also: Recent months at Charleville
Date/Time
EST
Temp
°C
App
Temp
°C
Dew
Point
°C
Rel
Hum
%
Delta-T
°C
Wind Press
QNH
hPa
Press
MSL
hPa
Rain since
9am
mm
Dir  Spd
km/h
Gust
km/h
Spd
kts
Gust
kts
30/05:30pm 22.5 20.6 10.6 47 6.6 NE 11 13 6 7 1019.3 1018.8 -
30/05:00pm 24.0 21.7 10.3 42 7.6 NNE 13 19 7 10 1019.0 1018.4 -
30/04:30pm 24.5 21.8 10.4 41 7.9 NE 15 20 8 11 1018.9 1018.3 -
30/04:00pm 24.5 21.9 10.8 42 7.7 NE 15 22 8 12 1019.0 1018.4 -
30/03:30pm 25.1 22.1 10.6 40 8.2 NNE 17 24 9 13 1019.4 1018.9 -
30/03:00pm 24.7 21.7 10.6 41 7.9 NNE 17 26 9 14 1019.5 1019.0 -
30/02:30pm 24.1 20.5 10.7 43 7.5 NNE 20 26 11 14 1019.8 1019.3 -
30/02:00pm 25.0 21.7 10.8 41 8.0 NNE 19 28 10 15 1020.1 1019.6 -
30/01:30pm 24.7 21.9 11.3 43 7.6 NNE 17 28 9 15 1020.8 1020.3 -
30/01:00pm 24.7 20.2 10.2 40 8.1 NNE 24 33 13 18 1021.1 1020.6 -
30/12:30pm 23.5 18.8 10.6 44 7.2 N 26 41 14 22 1021.8 1021.2 -
30/12:00pm 23.3 19.7 10.4 44 7.2 NNE 20 28 11 15 1022.4 1021.9 -
30/11:30am 23.4 19.0 11.8 48 6.6 NNE 26 33 14 18 1022.8 1022.3 -
30/11:00am 22.2 17.7 11.3 50 6.1 NNE 26 37 14 20 1023.4 1022.9 -
30/10:30am 21.9 16.5 11.0 50 6.1 NNE 30 41 16 22 1023.8 1023.3 -
30/10:00am 21.1 16.8 10.9 52 5.7 NNE 24 33 13 18 1024.2 1023.7 -
30/09:30am 19.6 15.0 10.9 57 4.8 NNE 26 33 14 18 1024.2 1023.7 0.0
30/09:00am 18.8 15.4 11.4 62 4.1 NNE 20 28 11 15 1024.3 1023.8 0.0
30/08:30am 17.1 15.8 12.4 74 2.6 NNE 11 17 6 9 1024.3 1023.8 0.0
30/08:00am 14.7 13.9 11.8 83 1.6 E 7 9 4 5 1024.1 1023.6 0.0
30/07:30am 12.0 11.0 10.2 89 0.9 N 6 7 3 4 1024.0 1023.5 0.0
30/07:00am 10.5 8.9 8.9 90 0.8 NNW 7 9 4 5 1023.9 1023.4 0.0
30/06:30am 10.7 9.2 9.1 90 0.8 N 7 9 4 5 1023.6 1023.1 0.0
30/06:00am 11.6 9.9 9.9 89 0.9 ENE 9 11 5 6 1023.1 1022.6 0.0
30/05:30am 12.3 11.1 10.4 88 1.0 NE 7 9 4 5 1022.8 1022.3 0.0
30/05:00am 12.1 10.5 10.2 88 1.0 NE 9 11 5 6 1022.6 1022.1 0.0
30/04:30am 12.4 10.9 10.5 88 1.0 NE 9 11 5 6 1022.6 1022.1 0.0
30/04:00am 12.4 11.0 9.6 83 1.4 NE 7 9 4 5 1022.5 1022.0 0.0
30/03:30am 12.8 11.1 10.0 83 1.5 NE 9 11 5 6 1022.4 1021.9 0.0
30/03:00am 13.2 11.5 10.0 81 1.7 NE 9 9 5 5 1022.3 1021.8 0.0
30/02:30am 13.7 12.0 9.9 78 2.0 NE 9 11 5 6 1022.4 1021.9 0.0
30/02:00am 13.9 12.6 9.9 77 2.1 NNE 7 9 4 5 1022.4 1021.9 0.0
30/01:30am 14.2 12.4 9.6 74 2.4 NE 9 9 5 5 1022.6 1022.1 0.0
30/01:00am 14.4 13.1 10.0 75 2.3 NE 7 9 4 5 1022.7 1022.2 0.0
30/12:30am 15.0 13.3 10.0 72 2.6 NE 9 11 5 6 1022.6 1022.1 0.0
30/12:00am 15.8 14.5 9.9 68 3.1 NE 7 9 4 5 1022.9 1022.4 0.0
 
Date/Time
EST
Temp
°C
App
Temp
°C
Dew
Point
°C
Rel
Hum
%
Delta-T
°C
Wind Press
QNH
hPa
Press
MSL
hPa
Rain since
9am
mm
Dir  Spd
km/h
Gust
km/h
Spd
kts
Gust
kts
29/11:30pm 16.5 14.8 9.9 65 3.5 NE 9 11 5 6 1023.0 1022.5 0.0
29/11:00pm 17.2 15.1 9.9 62 3.9 NE 11 13 6 7 1023.1 1022.6 0.0
29/10:30pm 17.6 15.8 9.5 59 4.3 ENE 9 17 5 9 1023.1 1022.6 0.0
29/10:00pm 18.0 15.7 9.1 56 4.7 ENE 11 15 6 8 1023.0 1022.5 0.0
29/09:30pm 18.8 16.1 9.0 53 5.2 E 13 17 7 9 1023.2 1022.7 0.0
29/09:00pm 18.6 16.2 8.8 53 5.2 E 11 15 6 8 1023.2 1022.7 0.0
29/08:30pm 18.1 16.0 8.1 52 5.2 E 9 11 5 6 1023.2 1022.7 0.0
29/08:00pm 18.7 16.5 7.8 49 5.6 ESE 9 11 5 6 1023.4 1022.9 0.0
29/07:30pm 18.9 16.3 7.7 48 5.8 ESE 11 11 6 6 1023.2 1022.7 0.0
29/07:00pm 18.4 15.6 6.9 47 5.8 E 11 13 6 7 1022.7 1022.2 0.0
29/06:30pm 19.4 17.0 6.8 44 6.4 E 9 11 5 6 1022.5 1022.0 0.0
29/06:00pm 19.8 17.8 6.9 43 6.6 E 7 9 4 5 1022.4 1021.9 0.0
29/05:30pm 21.9 19.6 7.3 39 7.6 E 9 11 5 6 1022.1 1021.6 0.0
29/05:00pm 23.7 21.3 6.9 34 8.8 ENE 9 11 5 6 1022.0 1021.4 0.0
29/04:30pm 24.5 20.6 7.2 33 9.2 NE 17 22 9 12 1021.9 1021.3 0.0
29/04:00pm 25.2 22.1 7.3 32 9.5 NE 13 20 7 11 1021.8 1021.2 0.0
29/03:30pm 25.4 22.6 7.1 31 9.7 NE 11 22 6 12 1021.7 1021.1 0.0
29/03:00pm 25.5 21.3 7.6 32 9.6 E 19 26 10 14 1021.8 1021.2 0.0
29/02:30pm 25.5 22.1 7.6 32 9.6 NE 15 19 8 10 1021.9 1021.3 0.0
29/02:00pm 25.1 21.3 7.7 33 9.3 ENE 17 32 9 17 1022.1 1021.6 0.0
29/01:30pm 24.7 21.1 6.9 32 9.4 ENE 15 26 8 14 1022.5 1022.0 0.0
29/01:00pm 24.6 20.4 7.3 33 9.2 ENE 19 30 10 16 1023.1 1022.6 0.0
29/12:30pm 24.1 20.0 7.7 35 8.8 NNE 19 28 10 15 1023.8 1023.3 0.0
29/12:00pm 23.5 19.2 8.0 37 8.3 NE 20 32 11 17 1024.4 1023.9 0.0
29/11:30am 22.7 18.1 8.0 39 7.8 NNE 22 33 12 18 1025.2 1024.7 0.0
29/11:00am 22.1 17.2 8.6 42 7.2 NNE 24 33 13 18 1025.7 1025.2 0.0
29/10:30am 21.8 17.0 9.0 44 6.9 NE 24 39 13 21 1025.9 1025.4 0.0
29/10:00am 21.2 16.7 10.1 49 6.1 NE 24 33 13 18 1026.2 1025.7 0.0
29/09:30am 20.1 15.5 9.7 51 5.6 NE 24 33 13 18 1026.1 1025.6 0.0
29/09:00am 19.1 14.9 9.9 55 4.9 NE 22 32 12 17 1026.0 1025.5 0.0
29/08:30am 17.7 14.9 10.1 61 4.1 NE 15 26 8 14 1025.8 1025.3 0.0
29/08:00am 14.5 12.9 10.1 75 2.3 NE 9 15 5 8 1025.6 1025.1 0.0
29/07:30am 12.7 10.8 9.2 79 1.8 NE 9 13 5 7 1025.4 1024.9 0.0
29/07:00am 12.2 9.8 8.5 78 1.9 ENE 11 15 6 8 1025.1 1024.6 0.0
29/06:30am 12.3 9.8 8.4 77 2.0 ENE 11 13 6 7 1024.8 1024.3 0.0
29/06:00am 12.6 10.1 8.3 75 2.2 ENE 11 15 6 8 1024.5 1024.0 0.0
29/05:30am 13.2 10.3 8.3 72 2.5 ENE 13 19 7 10 1024.2 1023.7 0.0
29/05:00am 11.3 8.8 8.2 81 1.5 NE 11 15 6 8 1024.0 1023.5 0.0
29/04:30am 8.4 6.2 6.0 85 1.1 ENE 7 7 4 4 1023.9 1023.4 0.0
29/04:00am 8.4 7.5 6.0 85 1.1 CALM 0 0 0 0 1023.9 1023.4 0.0
29/03:30am 8.6 7.7 5.9 83 1.3 CALM 0 0 0 0 1023.6 1023.1 0.0
29/03:00am 8.8 7.9 5.9 82 1.3 CALM 0 0 0 0 1023.6 1023.1 0.0
29/02:30am 9.3 8.4 6.2 81 1.5 CALM 0 0 0 0 1023.7 1023.2 0.0
29/02:00am 9.6 8.8 6.3 80 1.5 CALM 0 0 0 0 1023.6 1023.1 0.0
29/01:30am 10.0 8.0 6.3 78 1.7 E 6 6 3 3 1023.6 1023.1 0.0
29/01:00am 10.6 9.8 6.7 77 1.9 CALM 0 0 0 0 1023.7 1023.2 0.0
29/12:30am 11.1 10.3 6.6 74 2.2 CALM 0 0 0 0 1023.8 1023.3 0.0
29/12:00am 11.7 9.8 6.6 71 2.4 E 6 7 3 4 1023.9 1023.4 0.0
 
Date/Time
EST
Temp
°C
App
Temp
°C
Dew
Point
°C
Rel
Hum
%
Delta-T
°C
Wind Press
QNH
hPa
Press
MSL
hPa
Rain since
9am
mm
Dir  Spd
km/h
Gust
km/h
Spd
kts
Gust
kts
28/11:30pm 12.6 11.5 6.9 68 2.8 ENE 2 7 1 4 1024.1 1023.6 0.0
28/11:00pm 14.0 12.6 7.3 64 3.3 ENE 4 7 2 4 1024.2 1023.7 0.0
28/10:30pm 15.5 13.3 7.8 60 3.9 E 9 11 5 6 1024.2 1023.7 0.0
28/10:00pm 15.9 13.7 7.7 58 4.1 E 9 13 5 7 1023.9 1023.4 0.0
28/09:30pm 16.3 13.2 7.3 55 4.5 E 13 15 7 8 1024.0 1023.5 0.0
28/09:00pm 16.2 13.1 7.2 55 4.5 E 13 17 7 9 1023.8 1023.3 0.0
28/08:30pm 15.7 12.9 7.0 56 4.4 ESE 11 13 6 7 1023.7 1023.2 0.0
28/08:00pm 15.7 13.3 7.0 56 4.3 SE 9 11 5 6 1023.7 1023.2 0.0
28/07:30pm 17.0 14.6 6.8 51 5.1 SE 9 11 5 6 1023.4 1022.9 0.0
28/07:00pm 17.6 14.8 7.1 50 5.3 SE 11 11 6 6 1023.2 1022.7 0.0
28/06:30pm 18.3 15.9 6.8 47 5.8 SE 9 11 5 6 1022.9 1022.4 0.0
28/06:00pm 19.9 17.5 7.0 43 6.6 SE 9 9 5 5 1022.6 1022.1 0.0
28/05:30pm 21.8 19.0 6.9 38 7.7 SE 11 13 6 7 1022.4 1021.9 0.0
28/05:00pm 23.4 20.3 7.1 35 8.6 ESE 13 19 7 10 1022.2 1021.7 0.0
28/04:30pm 24.4 22.4 7.1 33 9.2 E 7 11 4 6 1021.9 1021.3 0.0
28/04:00pm 24.7 21.9 6.9 32 9.4 E 11 17 6 9 1021.9 1021.3 0.0
28/03:30pm 24.9 21.9 7.5 33 9.3 E 13 19 7 10 1021.9 1021.3 0.0
28/03:00pm 25.1 22.5 7.7 33 9.3 E 11 19 6 10 1022.0 1021.4 0.0
28/02:30pm 24.5 21.5 7.6 34 9.0 NE 13 24 7 13 1022.1 1021.6 0.0
28/02:00pm 24.1 21.8 7.3 34 8.9 E 9 15 5 8 1022.3 1021.8 0.0
28/01:30pm 24.4 22.7 8.4 36 8.7 NNE 7 19 4 10 1022.7 1022.2 0.0
28/01:00pm 23.9 21.1 7.1 34 8.8 NE 11 17 6 9 1023.2 1022.7 0.0
28/12:30pm 24.0 20.8 8.4 37 8.4 E 15 20 8 11 1023.6 1023.1 0.0
28/12:00pm 23.4 20.1 7.9 37 8.2 NE 15 20 8 11 1024.2 1023.7 0.0
28/11:30am 23.1 20.4 8.8 40 7.8 ENE 13 19 7 10 1024.5 1024.0 0.0
28/11:00am 22.3 18.8 8.8 42 7.3 E 17 22 9 12 1025.0 1024.5 0.0
28/10:30am 21.5 18.1 9.1 45 6.7 ENE 17 26 9 14 1025.5 1025.0 0.0
28/10:00am 20.7 18.0 9.0 47 6.2 ENE 13 19 7 10 1025.7 1025.2 0.0
28/09:30am 19.5 16.3 8.5 49 5.8 E 15 20 8 11 1025.7 1025.2 0.0
28/09:00am 17.7 14.7 7.7 52 5.1 E 13 17 7 9 1025.6 1025.1 0.0
28/08:30am 15.6 12.1 7.4 58 4.1 E 15 22 8 12 1025.4 1024.9 0.0
28/08:00am 10.8 8.3 6.6 75 2.0 S 9 9 5 5 1025.1 1024.6 0.0
28/07:30am 7.6 6.1 4.9 83 1.2 S 2 7 1 4 1025.0 1024.5 0.0
28/07:00am 6.6 5.3 3.9 83 1.2 CALM 0 0 0 0 1024.6 1024.1 0.0
28/06:30am 7.1 5.8 4.2 82 1.3 CALM 0 0 0 0 1024.3 1023.8 0.0
28/06:00am 7.4 5.4 4.2 80 1.4 S 4 6 2 3 1024.1 1023.6 0.0
28/05:30am 7.7 4.7 4.3 79 1.5 S 9 9 5 5 1023.8 1023.3 0.0
28/05:00am 7.6 6.3 4.2 79 1.5 CALM 0 0 0 0 1023.6 1023.1 0.0
28/04:30am 8.2 6.9 4.2 76 1.8 CALM 0 0 0 0 1023.5 1023.0 0.0
28/04:00am 9.2 7.9 4.2 71 2.2 CALM 0 0 0 0 1023.5 1023.0 0.0
28/03:30am 10.4 7.8 4.3 66 2.8 SSE 7 9 4 5 1023.6 1023.1 0.0
28/03:00am 11.1 7.8 4.3 63 3.1 SSE 11 13 6 7 1023.5 1023.0 0.0
28/02:30am 11.6 8.6 4.3 61 3.3 SE 9 9 5 5 1023.8 1023.3 0.0
28/02:00am 12.7 9.0 4.4 57 3.8 SE 13 15 7 8 1023.8 1023.3 0.0
28/01:30am 13.5 9.4 4.6 55 4.2 SE 15 17 8 9 1023.9 1023.4 0.0
28/01:00am 13.4 9.3 4.6 55 4.1 ESE 15 19 8 10 1023.9 1023.4 0.0
28/12:30am 12.8 8.7 4.5 57 3.9 SE 15 17 8 9 1023.9 1023.4 0.0
28/12:00am 11.5 8.2 4.3 61 3.3 SE 11 13 6 7 1024.1 1023.6 0.0
 
Date/Time
EST
Temp
°C
App
Temp
°C
Dew
Point
°C
Rel
Hum
%
Delta-T
°C
Wind Press
QNH
hPa
Press
MSL
hPa
Rain since
9am
mm
Dir  Spd
km/h
Gust
km/h
Spd
kts
Gust
kts
27/11:30pm 11.7 8.3 4.2 60 3.4 SE 11 13 6 7 1024.2 1023.7 0.0
27/11:00pm 11.7 8.4 4.4 61 3.3 SE 11 11 6 6 1024.2 1023.7 0.0
27/10:30pm 11.2 8.3 4.4 63 3.1 SE 9 11 5 6 1024.3 1023.8 0.0
27/10:00pm 11.4 8.4 4.2 61 3.3 SE 9 9 5 5 1024.3 1023.8 0.0
27/09:30pm 11.9 8.9 3.9 58 3.6 SE 9 9 5 5 1024.4 1023.9 0.0
27/09:00pm 12.6 9.5 3.8 55 4.0 SE 9 9 5 5 1024.4 1023.9 0.0
27/08:30pm 13.4 10.8 4.0 53 4.3 SE 7 9 4 5 1024.2 1023.7 0.0
27/08:00pm 14.0 11.0 4.3 52 4.5 SSE 9 9 5 5 1024.0 1023.5 0.0
27/07:30pm 14.8 11.8 4.2 49 5.0 SSE 9 9 5 5 1023.7 1023.2 0.0
27/07:00pm 15.8 12.9 4.5 47 5.4 SSE 9 9 5 5 1023.4 1022.9 0.0
27/06:30pm 17.3 14.8 4.6 43 6.1 SSE 7 9 4 5 1023.1 1022.6 0.0
27/06:00pm 19.2 16.2 4.2 37 7.2 S 9 11 5 6 1022.8 1022.3 0.0

Other formats

Comma delimited format used in spreadsheet applications
http://www.bom.gov.au/fwo/IDQ60801/IDQ60801.94510.axf

JavaScript Object Notation format (JSON) in row-major order
http://www.bom.gov.au/fwo/IDQ60801/IDQ60801.94510.json

Data quality

Most of these data are generated automatically and are frequently updated. Quality checks on data are not normally performed. It is possible for incorrect values to appear. Refer to information at About Latest Weather Observations and please check the disclaimer before using these data.